sensor_id;sensor_type;location;lat;lon;timestamp;P1;durP1;ratioP1;P2;durP2;ratioP2
50543;SDS011;41176;44.032;20.900;2023-02-19T00:01:48;3.03;;;1.05;;
50543;SDS011;41176;44.032;20.900;2023-02-19T00:04:17;3.08;;;1.60;;
50543;SDS011;41176;44.032;20.900;2023-02-19T00:06:46;1.90;;;0.90;;
50543;SDS011;41176;44.032;20.900;2023-02-19T00:09:13;1.48;;;1.20;;
50543;SDS011;41176;44.032;20.900;2023-02-19T00:11:40;2.70;;;1.27;;
50543;SDS011;41176;44.032;20.900;2023-02-19T00:14:07;2.15;;;0.70;;
50543;SDS011;41176;44.032;20.900;2023-02-19T00:16:34;0.88;;;0.40;;
50543;SDS011;41176;44.032;20.900;2023-02-19T00:19:02;1.35;;;0.88;;
50543;SDS011;41176;44.032;20.900;2023-02-19T00:21:29;2.20;;;0.95;;
50543;SDS011;41176;44.032;20.900;2023-02-19T00:23:56;1.05;;;0.47;;
50543;SDS011;41176;44.032;20.900;2023-02-19T00:26:23;1.27;;;0.73;;
50543;SDS011;41176;44.032;20.900;2023-02-19T00:28:50;0.90;;;0.55;;
50543;SDS011;41176;44.032;20.900;2023-02-19T00:33:50;3.70;;;1.55;;
50543;SDS011;41176;44.032;20.900;2023-02-19T00:36:20;2.67;;;1.80;;
50543;SDS011;41176;44.032;20.900;2023-02-19T00:38:47;4.90;;;1.35;;
50543;SDS011;41176;44.032;20.900;2023-02-19T00:41:13;1.75;;;1.02;;
50543;SDS011;41176;44.032;20.900;2023-02-19T00:43:53;2.67;;;1.55;;
50543;SDS011;41176;44.032;20.900;2023-02-19T00:46:21;3.08;;;1.27;;
50543;SDS011;41176;44.032;20.900;2023-02-19T00:48:51;3.13;;;1.20;;
50543;SDS011;41176;44.032;20.900;2023-02-19T00:51:17;2.88;;;1.00;;
50543;SDS011;41176;44.032;20.900;2023-02-19T00:53:44;1.75;;;1.27;;
50543;SDS011;41176;44.032;20.900;2023-02-19T00:56:10;2.88;;;1.85;;
50543;SDS011;41176;44.032;20.900;2023-02-19T00:58:36;2.00;;;1.42;;
50543;SDS011;41176;44.032;20.900;2023-02-19T01:01:03;4.85;;;3.33;;
50543;SDS011;41176;44.032;20.900;2023-02-19T01:03:30;7.10;;;3.35;;
50543;SDS011;41176;44.032;20.900;2023-02-19T01:05:57;2.92;;;1.70;;
50543;SDS011;41176;44.032;20.900;2023-02-19T01:08:22;5.38;;;3.03;;
50543;SDS011;41176;44.032;20.900;2023-02-19T01:10:48;6.55;;;2.95;;
50543;SDS011;41176;44.032;20.900;2023-02-19T01:13:14;4.13;;;2.67;;
50543;SDS011;41176;44.032;20.900;2023-02-19T01:15:40;4.18;;;2.75;;
50543;SDS011;41176;44.032;20.900;2023-02-19T01:18:05;5.55;;;1.85;;
50543;SDS011;41176;44.032;20.900;2023-02-19T01:20:31;2.03;;;1.35;;
50543;SDS011;41176;44.032;20.900;2023-02-19T01:22:57;6.63;;;1.67;;
50543;SDS011;41176;44.032;20.900;2023-02-19T01:25:22;3.20;;;2.28;;
50543;SDS011;41176;44.032;20.900;2023-02-19T01:27:48;4.57;;;2.20;;
50543;SDS011;41176;44.032;20.900;2023-02-19T01:30:14;1.52;;;1.05;;
50543;SDS011;41176;44.032;20.900;2023-02-19T01:32:39;1.65;;;1.08;;
50543;SDS011;41176;44.032;20.900;2023-02-19T01:35:05;2.85;;;1.20;;
50543;SDS011;41176;44.032;20.900;2023-02-19T01:37:31;3.75;;;1.35;;
50543;SDS011;41176;44.032;20.900;2023-02-19T01:39:56;1.90;;;1.23;;
50543;SDS011;41176;44.032;20.900;2023-02-19T01:42:22;1.67;;;1.02;;
50543;SDS011;41176;44.032;20.900;2023-02-19T01:49:58;2.20;;;1.05;;
50543;SDS011;41176;44.032;20.900;2023-02-19T01:52:26;1.98;;;1.15;;
50543;SDS011;41176;44.032;20.900;2023-02-19T01:54:59;1.10;;;0.93;;
50543;SDS011;41176;44.032;20.900;2023-02-19T01:57:29;0.88;;;0.63;;
50543;SDS011;41176;44.032;20.900;2023-02-19T02:00:03;4.28;;;1.75;;
50543;SDS011;41176;44.032;20.900;2023-02-19T02:02:32;1.15;;;0.68;;
50543;SDS011;41176;44.032;20.900;2023-02-19T02:04:58;1.13;;;0.93;;
50543;SDS011;41176;44.032;20.900;2023-02-19T02:07:25;1.65;;;1.05;;
50543;SDS011;41176;44.032;20.900;2023-02-19T02:10:09;1.52;;;1.35;;
50543;SDS011;41176;44.032;20.900;2023-02-19T02:12:50;5.22;;;1.45;;
50543;SDS011;41176;44.032;20.900;2023-02-19T02:15:20;2.40;;;1.08;;
50543;SDS011;41176;44.032;20.900;2023-02-19T02:29:16;2.17;;;1.48;;
50543;SDS011;41176;44.032;20.900;2023-02-19T02:31:55;2.22;;;1.63;;
50543;SDS011;41176;44.032;20.900;2023-02-19T02:34:41;4.38;;;1.05;;
50543;SDS011;41176;44.032;20.900;2023-02-19T02:37:12;2.20;;;0.73;;
50543;SDS011;41176;44.032;20.900;2023-02-19T02:39:39;1.63;;;1.05;;
50543;SDS011;41176;44.032;20.900;2023-02-19T02:42:06;1.70;;;0.93;;
50543;SDS011;41176;44.032;20.900;2023-02-19T02:44:50;1.70;;;0.70;;
50543;SDS011;41176;44.032;20.900;2023-02-19T02:47:36;2.47;;;1.17;;
50543;SDS011;41176;44.032;20.900;2023-02-19T02:50:22;4.82;;;0.95;;
50543;SDS011;41176;44.032;20.900;2023-02-19T02:52:54;0.88;;;0.70;;
50543;SDS011;41176;44.032;20.900;2023-02-19T02:55:41;2.70;;;1.58;;
50543;SDS011;41176;44.032;20.900;2023-02-19T02:58:10;0.93;;;0.60;;
50543;SDS011;41176;44.032;20.900;2023-02-19T03:00:37;2.30;;;2.08;;
50543;SDS011;41176;44.032;20.900;2023-02-19T03:03:24;1.83;;;1.17;;
50543;SDS011;41176;44.032;20.900;2023-02-19T03:05:53;0.75;;;0.55;;
50543;SDS011;41176;44.032;20.900;2023-02-19T03:13:54;3.20;;;1.67;;
50543;SDS011;41176;44.032;20.900;2023-02-19T03:19:34;2.00;;;1.25;;
50543;SDS011;41176;44.032;20.900;2023-02-19T03:22:05;1.35;;;0.88;;
50543;SDS011;41176;44.032;20.900;2023-02-19T03:24:42;1.75;;;1.15;;
50543;SDS011;41176;44.032;20.900;2023-02-19T03:27:33;3.22;;;0.98;;
50543;SDS011;41176;44.032;20.900;2023-02-19T03:30:02;2.65;;;1.15;;
50543;SDS011;41176;44.032;20.900;2023-02-19T03:32:55;2.38;;;1.40;;
50543;SDS011;41176;44.032;20.900;2023-02-19T03:35:22;2.03;;;1.05;;
50543;SDS011;41176;44.032;20.900;2023-02-19T03:40:33;2.45;;;2.08;;
50543;SDS011;41176;44.032;20.900;2023-02-19T03:45:47;1.58;;;1.27;;
50543;SDS011;41176;44.032;20.900;2023-02-19T03:48:36;1.20;;;1.05;;
50543;SDS011;41176;44.032;20.900;2023-02-19T03:54:22;2.03;;;1.40;;
50543;SDS011;41176;44.032;20.900;2023-02-19T03:57:06;1.77;;;0.77;;
50543;SDS011;41176;44.032;20.900;2023-02-19T03:59:47;4.72;;;1.58;;
50543;SDS011;41176;44.032;20.900;2023-02-19T04:02:33;2.90;;;0.82;;
50543;SDS011;41176;44.032;20.900;2023-02-19T04:08:02;2.80;;;1.17;;
50543;SDS011;41176;44.032;20.900;2023-02-19T04:10:32;2.22;;;1.38;;
50543;SDS011;41176;44.032;20.900;2023-02-19T04:13:03;1.90;;;1.25;;
50543;SDS011;41176;44.032;20.900;2023-02-19T04:15:37;2.97;;;1.70;;
50543;SDS011;41176;44.032;20.900;2023-02-19T04:18:10;2.35;;;1.02;;
50543;SDS011;41176;44.032;20.900;2023-02-19T04:20:46;3.25;;;1.98;;
50543;SDS011;41176;44.032;20.900;2023-02-19T04:23:13;2.72;;;1.33;;
50543;SDS011;41176;44.032;20.900;2023-02-19T04:25:44;1.45;;;0.77;;
50543;SDS011;41176;44.032;20.900;2023-02-19T04:28:13;2.47;;;1.38;;
50543;SDS011;41176;44.032;20.900;2023-02-19T04:30:40;3.08;;;1.80;;
50543;SDS011;41176;44.032;20.900;2023-02-19T04:33:07;2.95;;;1.63;;
50543;SDS011;41176;44.032;20.900;2023-02-19T04:35:33;1.38;;;0.90;;
50543;SDS011;41176;44.032;20.900;2023-02-19T04:37:58;3.15;;;2.25;;
50543;SDS011;41176;44.032;20.900;2023-02-19T04:40:24;1.95;;;1.35;;
50543;SDS011;41176;44.032;20.900;2023-02-19T04:42:50;2.00;;;1.33;;
50543;SDS011;41176;44.032;20.900;2023-02-19T04:45:15;2.15;;;1.63;;
50543;SDS011;41176;44.032;20.900;2023-02-19T04:47:41;3.90;;;1.23;;
50543;SDS011;41176;44.032;20.900;2023-02-19T04:50:07;3.20;;;1.08;;
50543;SDS011;41176;44.032;20.900;2023-02-19T04:52:33;2.45;;;1.38;;
50543;SDS011;41176;44.032;20.900;2023-02-19T04:54:59;1.17;;;1.08;;
50543;SDS011;41176;44.032;20.900;2023-02-19T04:57:25;2.67;;;1.30;;
50543;SDS011;41176;44.032;20.900;2023-02-19T04:59:51;0.57;;;0.47;;
50543;SDS011;41176;44.032;20.900;2023-02-19T05:02:16;1.63;;;0.60;;
50543;SDS011;41176;44.032;20.900;2023-02-19T05:04:42;1.48;;;1.17;;
50543;SDS011;41176;44.032;20.900;2023-02-19T05:07:08;2.42;;;1.27;;
50543;SDS011;41176;44.032;20.900;2023-02-19T05:09:33;3.45;;;1.60;;
50543;SDS011;41176;44.032;20.900;2023-02-19T05:11:59;1.55;;;1.38;;
50543;SDS011;41176;44.032;20.900;2023-02-19T05:14:24;2.13;;;1.27;;
50543;SDS011;41176;44.032;20.900;2023-02-19T05:16:50;2.80;;;1.13;;
50543;SDS011;41176;44.032;20.900;2023-02-19T05:19:16;2.30;;;1.75;;
50543;SDS011;41176;44.032;20.900;2023-02-19T05:21:42;3.10;;;1.38;;
50543;SDS011;41176;44.032;20.900;2023-02-19T05:24:07;1.58;;;1.38;;
50543;SDS011;41176;44.032;20.900;2023-02-19T05:26:33;1.25;;;0.63;;
50543;SDS011;41176;44.032;20.900;2023-02-19T05:28:59;2.03;;;1.58;;
50543;SDS011;41176;44.032;20.900;2023-02-19T05:31:25;5.15;;;1.75;;
50543;SDS011;41176;44.032;20.900;2023-02-19T05:33:50;1.27;;;0.75;;
50543;SDS011;41176;44.032;20.900;2023-02-19T05:36:17;1.70;;;0.77;;
50543;SDS011;41176;44.032;20.900;2023-02-19T05:38:44;6.10;;;2.08;;
50543;SDS011;41176;44.032;20.900;2023-02-19T05:41:14;1.45;;;1.17;;
50543;SDS011;41176;44.032;20.900;2023-02-19T05:43:43;1.75;;;1.08;;
50543;SDS011;41176;44.032;20.900;2023-02-19T05:46:11;1.15;;;0.65;;
50543;SDS011;41176;44.032;20.900;2023-02-19T05:48:39;1.77;;;1.10;;
50543;SDS011;41176;44.032;20.900;2023-02-19T05:51:05;1.95;;;1.40;;
50543;SDS011;41176;44.032;20.900;2023-02-19T05:53:33;1.02;;;0.60;;
50543;SDS011;41176;44.032;20.900;2023-02-19T05:55:59;1.77;;;1.17;;
50543;SDS011;41176;44.032;20.900;2023-02-19T05:58:24;3.10;;;1.67;;
50543;SDS011;41176;44.032;20.900;2023-02-19T06:00:51;3.00;;;2.10;;
50543;SDS011;41176;44.032;20.900;2023-02-19T06:03:17;1.60;;;0.93;;
50543;SDS011;41176;44.032;20.900;2023-02-19T06:05:42;0.85;;;0.70;;
50543;SDS011;41176;44.032;20.900;2023-02-19T06:08:09;2.17;;;1.38;;
50543;SDS011;41176;44.032;20.900;2023-02-19T06:10:37;1.63;;;1.35;;
50543;SDS011;41176;44.032;20.900;2023-02-19T06:13:05;0.70;;;0.38;;
50543;SDS011;41176;44.032;20.900;2023-02-19T06:15:35;1.40;;;0.85;;
50543;SDS011;41176;44.032;20.900;2023-02-19T06:18:00;2.67;;;1.98;;
50543;SDS011;41176;44.032;20.900;2023-02-19T06:20:27;3.00;;;1.48;;
50543;SDS011;41176;44.032;20.900;2023-02-19T06:22:53;3.80;;;1.73;;
50543;SDS011;41176;44.032;20.900;2023-02-19T06:25:19;4.00;;;2.10;;
50543;SDS011;41176;44.032;20.900;2023-02-19T06:27:45;2.10;;;1.05;;
50543;SDS011;41176;44.032;20.900;2023-02-19T06:30:10;1.20;;;0.95;;
50543;SDS011;41176;44.032;20.900;2023-02-19T06:32:37;1.98;;;1.05;;
50543;SDS011;41176;44.032;20.900;2023-02-19T06:35:03;1.95;;;1.15;;
50543;SDS011;41176;44.032;20.900;2023-02-19T06:37:29;2.28;;;1.83;;
50543;SDS011;41176;44.032;20.900;2023-02-19T06:39:55;0.77;;;0.63;;
50543;SDS011;41176;44.032;20.900;2023-02-19T06:42:20;0.70;;;0.65;;
50543;SDS011;41176;44.032;20.900;2023-02-19T06:44:46;0.20;;;0.13;;
50543;SDS011;41176;44.032;20.900;2023-02-19T06:47:12;1.15;;;0.43;;
50543;SDS011;41176;44.032;20.900;2023-02-19T06:49:38;0.55;;;0.43;;
50543;SDS011;41176;44.032;20.900;2023-02-19T06:52:04;0.50;;;0.45;;
50543;SDS011;41176;44.032;20.900;2023-02-19T06:54:30;2.22;;;1.05;;
50543;SDS011;41176;44.032;20.900;2023-02-19T06:56:57;1.58;;;1.27;;
50543;SDS011;41176;44.032;20.900;2023-02-19T06:59:23;1.45;;;1.13;;
50543;SDS011;41176;44.032;20.900;2023-02-19T07:01:49;1.35;;;0.80;;
50543;SDS011;41176;44.032;20.900;2023-02-19T07:04:15;3.50;;;1.67;;
50543;SDS011;41176;44.032;20.900;2023-02-19T07:06:41;1.75;;;1.20;;
50543;SDS011;41176;44.032;20.900;2023-02-19T07:09:07;1.75;;;1.27;;
50543;SDS011;41176;44.032;20.900;2023-02-19T07:11:33;1.58;;;1.10;;
50543;SDS011;41176;44.032;20.900;2023-02-19T07:14:02;1.95;;;1.45;;
50543;SDS011;41176;44.032;20.900;2023-02-19T07:16:29;6.78;;;2.10;;
50543;SDS011;41176;44.032;20.900;2023-02-19T07:18:55;2.90;;;1.00;;
50543;SDS011;41176;44.032;20.900;2023-02-19T07:21:22;2.53;;;1.50;;
50543;SDS011;41176;44.032;20.900;2023-02-19T07:23:48;1.33;;;0.85;;
50543;SDS011;41176;44.032;20.900;2023-02-19T07:26:14;1.40;;;0.75;;
50543;SDS011;41176;44.032;20.900;2023-02-19T07:28:42;2.40;;;1.10;;
50543;SDS011;41176;44.032;20.900;2023-02-19T07:31:09;1.98;;;0.90;;
50543;SDS011;41176;44.032;20.900;2023-02-19T07:33:35;4.57;;;1.20;;
50543;SDS011;41176;44.032;20.900;2023-02-19T07:36:01;2.60;;;0.95;;
50543;SDS011;41176;44.032;20.900;2023-02-19T07:38:26;1.25;;;0.65;;
50543;SDS011;41176;44.032;20.900;2023-02-19T07:40:53;7.30;;;1.10;;
50543;SDS011;41176;44.032;20.900;2023-02-19T07:43:23;5.10;;;1.08;;
50543;SDS011;41176;44.032;20.900;2023-02-19T07:45:50;1.95;;;0.70;;
50543;SDS011;41176;44.032;20.900;2023-02-19T07:48:16;0.90;;;0.73;;
50543;SDS011;41176;44.032;20.900;2023-02-19T07:50:49;2.95;;;1.02;;
50543;SDS011;41176;44.032;20.900;2023-02-19T07:53:18;2.53;;;1.50;;
50543;SDS011;41176;44.032;20.900;2023-02-19T07:55:45;1.45;;;0.70;;
50543;SDS011;41176;44.032;20.900;2023-02-19T07:58:11;3.63;;;1.27;;
50543;SDS011;41176;44.032;20.900;2023-02-19T08:00:37;3.28;;;1.48;;
50543;SDS011;41176;44.032;20.900;2023-02-19T08:03:02;2.17;;;1.52;;
50543;SDS011;41176;44.032;20.900;2023-02-19T08:05:32;2.97;;;1.13;;
50543;SDS011;41176;44.032;20.900;2023-02-19T08:08:01;1.42;;;0.95;;
50543;SDS011;41176;44.032;20.900;2023-02-19T08:10:29;1.45;;;1.00;;
50543;SDS011;41176;44.032;20.900;2023-02-19T08:15:43;19.85;;;2.10;;
50543;SDS011;41176;44.032;20.900;2023-02-19T08:18:09;1.25;;;0.93;;
50543;SDS011;41176;44.032;20.900;2023-02-19T08:20:36;1.70;;;1.08;;
50543;SDS011;41176;44.032;20.900;2023-02-19T08:23:02;4.32;;;1.58;;
50543;SDS011;41176;44.032;20.900;2023-02-19T08:25:28;3.08;;;1.60;;
50543;SDS011;41176;44.032;20.900;2023-02-19T08:27:54;1.17;;;0.75;;
50543;SDS011;41176;44.032;20.900;2023-02-19T08:30:20;1.75;;;1.10;;
50543;SDS011;41176;44.032;20.900;2023-02-19T08:32:46;1.30;;;0.80;;
50543;SDS011;41176;44.032;20.900;2023-02-19T08:35:11;2.92;;;0.88;;
50543;SDS011;41176;44.032;20.900;2023-02-19T08:37:37;2.00;;;0.82;;
50543;SDS011;41176;44.032;20.900;2023-02-19T08:40:03;1.25;;;0.80;;
50543;SDS011;41176;44.032;20.900;2023-02-19T08:42:29;1.67;;;0.98;;
50543;SDS011;41176;44.032;20.900;2023-02-19T08:44:55;1.65;;;0.73;;
50543;SDS011;41176;44.032;20.900;2023-02-19T08:47:21;1.40;;;0.90;;
50543;SDS011;41176;44.032;20.900;2023-02-19T08:49:46;1.45;;;0.77;;
50543;SDS011;41176;44.032;20.900;2023-02-19T08:52:12;1.77;;;0.70;;
50543;SDS011;41176;44.032;20.900;2023-02-19T08:54:38;1.15;;;0.47;;
50543;SDS011;41176;44.032;20.900;2023-02-19T08:57:04;1.77;;;0.95;;
50543;SDS011;41176;44.032;20.900;2023-02-19T08:59:30;2.03;;;0.82;;
50543;SDS011;41176;44.032;20.900;2023-02-19T09:01:59;2.92;;;0.82;;
50543;SDS011;41176;44.032;20.900;2023-02-19T09:04:24;1.98;;;1.05;;
50543;SDS011;41176;44.032;20.900;2023-02-19T09:06:50;1.92;;;1.23;;
50543;SDS011;41176;44.032;20.900;2023-02-19T09:09:16;1.48;;;0.65;;
50543;SDS011;41176;44.032;20.900;2023-02-19T09:11:42;1.38;;;0.93;;
50543;SDS011;41176;44.032;20.900;2023-02-19T09:14:07;2.50;;;1.02;;
50543;SDS011;41176;44.032;20.900;2023-02-19T09:16:33;2.33;;;1.08;;
50543;SDS011;41176;44.032;20.900;2023-02-19T09:18:59;2.58;;;1.02;;
50543;SDS011;41176;44.032;20.900;2023-02-19T09:21:25;2.30;;;0.85;;
50543;SDS011;41176;44.032;20.900;2023-02-19T09:23:50;1.40;;;0.88;;
50543;SDS011;41176;44.032;20.900;2023-02-19T09:26:16;2.15;;;1.33;;
50543;SDS011;41176;44.032;20.900;2023-02-19T09:28:42;2.38;;;0.80;;
50543;SDS011;41176;44.032;20.900;2023-02-19T09:31:09;2.25;;;0.90;;
50543;SDS011;41176;44.032;20.900;2023-02-19T09:33:36;1.95;;;1.05;;
50543;SDS011;41176;44.032;20.900;2023-02-19T09:36:02;1.70;;;0.40;;
50543;SDS011;41176;44.032;20.900;2023-02-19T09:38:28;2.60;;;1.00;;
50543;SDS011;41176;44.032;20.900;2023-02-19T09:40:58;1.90;;;1.00;;
50543;SDS011;41176;44.032;20.900;2023-02-19T09:43:59;2.13;;;1.08;;
50543;SDS011;41176;44.032;20.900;2023-02-19T09:49:05;3.22;;;1.17;;
50543;SDS011;41176;44.032;20.900;2023-02-19T09:51:37;1.90;;;1.02;;
50543;SDS011;41176;44.032;20.900;2023-02-19T09:54:09;2.58;;;1.05;;
50543;SDS011;41176;44.032;20.900;2023-02-19T09:56:48;2.17;;;0.70;;
50543;SDS011;41176;44.032;20.900;2023-02-19T09:59:19;1.65;;;0.60;;
50543;SDS011;41176;44.032;20.900;2023-02-19T10:01:48;1.90;;;0.60;;
50543;SDS011;41176;44.032;20.900;2023-02-19T10:04:21;1.67;;;0.60;;
50543;SDS011;41176;44.032;20.900;2023-02-19T10:06:46;1.17;;;0.50;;
50543;SDS011;41176;44.032;20.900;2023-02-19T10:09:23;1.42;;;0.65;;
50543;SDS011;41176;44.032;20.900;2023-02-19T10:11:52;2.10;;;0.80;;
50543;SDS011;41176;44.032;20.900;2023-02-19T10:14:25;0.85;;;0.45;;
50543;SDS011;41176;44.032;20.900;2023-02-19T10:17:03;1.77;;;0.75;;
50543;SDS011;41176;44.032;20.900;2023-02-19T10:19:30;3.25;;;0.70;;
50543;SDS011;41176;44.032;20.900;2023-02-19T10:21:58;1.80;;;0.70;;
50543;SDS011;41176;44.032;20.900;2023-02-19T10:24:25;1.88;;;0.90;;
50543;SDS011;41176;44.032;20.900;2023-02-19T10:26:52;1.27;;;0.35;;
50543;SDS011;41176;44.032;20.900;2023-02-19T10:29:19;1.90;;;0.75;;
50543;SDS011;41176;44.032;20.900;2023-02-19T10:31:46;1.10;;;0.50;;
50543;SDS011;41176;44.032;20.900;2023-02-19T10:34:20;1.35;;;0.63;;
50543;SDS011;41176;44.032;20.900;2023-02-19T10:36:49;3.83;;;1.25;;
50543;SDS011;41176;44.032;20.900;2023-02-19T10:41:54;2.53;;;0.98;;
50543;SDS011;41176;44.032;20.900;2023-02-19T10:44:21;1.00;;;0.40;;
50543;SDS011;41176;44.032;20.900;2023-02-19T10:49:22;2.80;;;0.60;;
50543;SDS011;41176;44.032;20.900;2023-02-19T10:52:00;2.53;;;1.15;;
50543;SDS011;41176;44.032;20.900;2023-02-19T10:54:41;1.45;;;0.50;;
50543;SDS011;41176;44.032;20.900;2023-02-19T11:00:26;2.70;;;0.80;;
50543;SDS011;41176;44.032;20.900;2023-02-19T11:03:13;1.40;;;0.77;;
50543;SDS011;41176;44.032;20.900;2023-02-19T11:06:07;1.15;;;0.65;;
50543;SDS011;41176;44.032;20.900;2023-02-19T11:14:00;1.92;;;0.70;;
50543;SDS011;41176;44.032;20.900;2023-02-19T11:16:45;1.17;;;0.55;;
50543;SDS011;41176;44.032;20.900;2023-02-19T11:19:24;1.52;;;0.73;;
50543;SDS011;41176;44.032;20.900;2023-02-19T11:21:57;1.40;;;0.77;;
50543;SDS011;41176;44.032;20.900;2023-02-19T11:24:27;1.80;;;0.90;;
50543;SDS011;41176;44.032;20.900;2023-02-19T11:26:53;1.13;;;0.52;;
50543;SDS011;41176;44.032;20.900;2023-02-19T11:29:20;0.77;;;0.30;;
50543;SDS011;41176;44.032;20.900;2023-02-19T11:31:48;1.92;;;0.77;;
50543;SDS011;41176;44.032;20.900;2023-02-19T11:36:44;1.83;;;0.70;;
50543;SDS011;41176;44.032;20.900;2023-02-19T11:41:47;2.05;;;0.85;;
50543;SDS011;41176;44.032;20.900;2023-02-19T11:50:07;2.25;;;0.95;;
50543;SDS011;41176;44.032;20.900;2023-02-19T12:00:42;1.08;;;0.68;;
50543;SDS011;41176;44.032;20.900;2023-02-19T12:03:22;3.20;;;0.90;;
50543;SDS011;41176;44.032;20.900;2023-02-19T12:09:00;1.45;;;0.73;;
50543;SDS011;41176;44.032;20.900;2023-02-19T12:14:24;1.40;;;0.57;;
50543;SDS011;41176;44.032;20.900;2023-02-19T12:17:14;1.25;;;0.63;;
50543;SDS011;41176;44.032;20.900;2023-02-19T12:22:31;2.50;;;0.85;;
50543;SDS011;41176;44.032;20.900;2023-02-19T12:30:58;2.05;;;0.80;;
50543;SDS011;41176;44.032;20.900;2023-02-19T12:36:14;1.02;;;0.63;;
50543;SDS011;41176;44.032;20.900;2023-02-19T12:38:56;2.22;;;0.63;;
50543;SDS011;41176;44.032;20.900;2023-02-19T12:45:09;1.42;;;0.52;;
50543;SDS011;41176;44.032;20.900;2023-02-19T12:47:17;1.33;;;0.73;;
50543;SDS011;41176;44.032;20.900;2023-02-19T12:49:49;0.98;;;0.52;;
50543;SDS011;41176;44.032;20.900;2023-02-19T12:52:31;1.05;;;0.40;;
50543;SDS011;41176;44.032;20.900;2023-02-19T12:55:16;3.05;;;0.70;;
50543;SDS011;41176;44.032;20.900;2023-02-19T12:57:58;1.10;;;0.60;;
50543;SDS011;41176;44.032;20.900;2023-02-19T13:03:21;1.63;;;0.90;;
50543;SDS011;41176;44.032;20.900;2023-02-19T13:11:54;2.40;;;0.90;;
50543;SDS011;41176;44.032;20.900;2023-02-19T13:14:28;3.88;;;1.38;;
50543;SDS011;41176;44.032;20.900;2023-02-19T13:16:59;2.97;;;0.98;;
50543;SDS011;41176;44.032;20.900;2023-02-19T13:19:30;2.07;;;0.90;;
50543;SDS011;41176;44.032;20.900;2023-02-19T13:25:29;3.20;;;1.23;;
50543;SDS011;41176;44.032;20.900;2023-02-19T13:28:30;2.17;;;1.02;;
50543;SDS011;41176;44.032;20.900;2023-02-19T13:31:05;2.78;;;1.30;;
50543;SDS011;41176;44.032;20.900;2023-02-19T13:34:08;1.65;;;0.93;;
50543;SDS011;41176;44.032;20.900;2023-02-19T13:36:44;2.47;;;1.00;;
50543;SDS011;41176;44.032;20.900;2023-02-19T13:39:12;2.28;;;0.95;;
50543;SDS011;41176;44.032;20.900;2023-02-19T13:41:40;1.95;;;0.98;;
50543;SDS011;41176;44.032;20.900;2023-02-19T13:44:20;3.15;;;1.35;;
50543;SDS011;41176;44.032;20.900;2023-02-19T13:46:49;1.65;;;0.88;;
50543;SDS011;41176;44.032;20.900;2023-02-19T13:49:22;2.55;;;1.10;;
50543;SDS011;41176;44.032;20.900;2023-02-19T13:51:53;1.98;;;0.77;;
50543;SDS011;41176;44.032;20.900;2023-02-19T13:54:24;2.33;;;1.05;;
50543;SDS011;41176;44.032;20.900;2023-02-19T13:59:42;1.33;;;0.70;;
50543;SDS011;41176;44.032;20.900;2023-02-19T14:04:48;1.42;;;0.80;;
50543;SDS011;41176;44.032;20.900;2023-02-19T14:17:27;1.75;;;0.98;;
50543;SDS011;41176;44.032;20.900;2023-02-19T14:28:10;2.20;;;1.33;;
50543;SDS011;41176;44.032;20.900;2023-02-19T14:33:22;5.70;;;0.95;;
50543;SDS011;41176;44.032;20.900;2023-02-19T14:38:42;2.40;;;0.93;;
50543;SDS011;41176;44.032;20.900;2023-02-19T14:41:14;2.80;;;1.77;;
50543;SDS011;41176;44.032;20.900;2023-02-19T14:43:42;4.32;;;2.33;;
50543;SDS011;41176;44.032;20.900;2023-02-19T14:48:41;1.90;;;1.00;;
50543;SDS011;41176;44.032;20.900;2023-02-19T14:51:28;10.77;;;1.67;;
50543;SDS011;41176;44.032;20.900;2023-02-19T14:54:17;2.47;;;1.25;;
50543;SDS011;41176;44.032;20.900;2023-02-19T14:56:58;2.78;;;1.38;;
50543;SDS011;41176;44.032;20.900;2023-02-19T14:59:29;2.60;;;1.35;;
50543;SDS011;41176;44.032;20.900;2023-02-19T15:01:57;1.88;;;0.93;;
50543;SDS011;41176;44.032;20.900;2023-02-19T15:04:26;2.53;;;1.60;;
50543;SDS011;41176;44.032;20.900;2023-02-19T15:06:55;2.35;;;1.17;;
50543;SDS011;41176;44.032;20.900;2023-02-19T15:09:28;1.70;;;1.05;;
50543;SDS011;41176;44.032;20.900;2023-02-19T15:12:02;1.48;;;0.80;;
50543;SDS011;41176;44.032;20.900;2023-02-19T15:14:28;3.95;;;1.13;;
50543;SDS011;41176;44.032;20.900;2023-02-19T15:16:57;2.53;;;1.60;;
50543;SDS011;41176;44.032;20.900;2023-02-19T15:19:26;1.63;;;1.00;;
50543;SDS011;41176;44.032;20.900;2023-02-19T15:21:55;4.00;;;1.77;;
50543;SDS011;41176;44.032;20.900;2023-02-19T15:24:20;3.83;;;1.58;;
50543;SDS011;41176;44.032;20.900;2023-02-19T15:26:47;2.28;;;1.20;;
50543;SDS011;41176;44.032;20.900;2023-02-19T15:29:19;2.65;;;1.50;;
50543;SDS011;41176;44.032;20.900;2023-02-19T15:31:57;3.92;;;1.27;;
50543;SDS011;41176;44.032;20.900;2023-02-19T15:34:25;4.50;;;1.60;;
50543;SDS011;41176;44.032;20.900;2023-02-19T15:36:59;3.13;;;1.92;;
50543;SDS011;41176;44.032;20.900;2023-02-19T15:39:34;5.30;;;1.27;;
50543;SDS011;41176;44.032;20.900;2023-02-19T15:42:04;3.20;;;1.98;;
50543;SDS011;41176;44.032;20.900;2023-02-19T15:49:45;2.65;;;1.40;;
50543;SDS011;41176;44.032;20.900;2023-02-19T15:55:52;3.13;;;1.52;;
50543;SDS011;41176;44.032;20.900;2023-02-19T15:57:56;2.83;;;1.93;;
50543;SDS011;41176;44.032;20.900;2023-02-19T16:03:12;1.90;;;1.27;;
50543;SDS011;41176;44.032;20.900;2023-02-19T16:05:43;5.07;;;2.20;;
50543;SDS011;41176;44.032;20.900;2023-02-19T16:08:16;4.15;;;2.17;;
50543;SDS011;41176;44.032;20.900;2023-02-19T16:10:57;3.50;;;2.30;;
50543;SDS011;41176;44.032;20.900;2023-02-19T16:13:26;3.13;;;1.83;;
50543;SDS011;41176;44.032;20.900;2023-02-19T16:15:56;3.53;;;1.50;;
50543;SDS011;41176;44.032;20.900;2023-02-19T16:18:22;4.85;;;2.38;;
50543;SDS011;41176;44.032;20.900;2023-02-19T16:20:48;3.38;;;2.58;;
50543;SDS011;41176;44.032;20.900;2023-02-19T16:23:14;5.15;;;2.85;;
50543;SDS011;41176;44.032;20.900;2023-02-19T16:25:45;5.15;;;2.60;;
50543;SDS011;41176;44.032;20.900;2023-02-19T16:28:13;3.70;;;2.00;;
50543;SDS011;41176;44.032;20.900;2023-02-19T16:30:57;3.95;;;2.33;;
50543;SDS011;41176;44.032;20.900;2023-02-19T16:33:41;6.15;;;3.30;;
50543;SDS011;41176;44.032;20.900;2023-02-19T16:39:11;5.70;;;2.97;;
50543;SDS011;41176;44.032;20.900;2023-02-19T16:46:54;6.57;;;3.50;;
50543;SDS011;41176;44.032;20.900;2023-02-19T16:49:32;8.38;;;5.18;;
50543;SDS011;41176;44.032;20.900;2023-02-19T16:52:01;10.68;;;4.45;;
50543;SDS011;41176;44.032;20.900;2023-02-19T16:54:27;4.88;;;2.38;;
50543;SDS011;41176;44.032;20.900;2023-02-19T16:56:53;4.93;;;2.47;;
50543;SDS011;41176;44.032;20.900;2023-02-19T16:59:19;7.55;;;3.38;;
50543;SDS011;41176;44.032;20.900;2023-02-19T17:01:44;4.63;;;3.70;;
50543;SDS011;41176;44.032;20.900;2023-02-19T17:04:10;2.97;;;1.70;;
50543;SDS011;41176;44.032;20.900;2023-02-19T17:06:37;4.47;;;3.03;;
50543;SDS011;41176;44.032;20.900;2023-02-19T17:09:04;2.22;;;1.33;;
50543;SDS011;41176;44.032;20.900;2023-02-19T17:11:32;4.45;;;2.22;;
50543;SDS011;41176;44.032;20.900;2023-02-19T17:13:58;11.57;;;3.55;;
50543;SDS011;41176;44.032;20.900;2023-02-19T17:16:25;15.10;;;4.45;;
50543;SDS011;41176;44.032;20.900;2023-02-19T17:18:54;5.82;;;2.75;;
50543;SDS011;41176;44.032;20.900;2023-02-19T17:21:21;6.88;;;2.72;;
50543;SDS011;41176;44.032;20.900;2023-02-19T17:23:52;7.28;;;2.63;;
50543;SDS011;41176;44.032;20.900;2023-02-19T17:26:20;5.45;;;2.90;;
50543;SDS011;41176;44.032;20.900;2023-02-19T17:28:49;7.55;;;3.30;;
50543;SDS011;41176;44.032;20.900;2023-02-19T17:31:15;4.88;;;1.67;;